Time;durP1;ratioP1;P1;durP2;ratioP2;P2;SDS_P1;SDS_P2;PMS_P1;PMS_P2;Temp;Humidity;BMP_temperature;BMP_pressure;BME280_temperature;BME280_humidity;BME280_pressure;Samples;Min_cycle;Max_cycle;Signal;HPM_P1;HPM_P2
2022/07/14 00:00:55;;;;;;;14.30;6.58;;;;;;;18.57;62.35;98852.05;1458430;80;20468;-73
2022/07/14 00:02:56;;;;;;;16.45;6.75;;;;;;;18.53;62.21;98839.92;1459597;80;21015;-73
2022/07/14 00:04:57;;;;;;;13.15;6.58;;;;;;;18.53;62.24;98842.59;1458872;80;81714;-73
2022/07/14 00:06:58;;;;;;;14.78;6.80;;;;;;;18.50;62.27;98843.69;1456328;80;20987;-72
2022/07/14 00:09:00;;;;;;;11.75;6.67;;;;;;;18.49;62.36;98845.99;1455221;79;81705;-73
2022/07/14 00:11:02;;;;;;;12.88;6.20;;;;;;;18.47;62.38;98835.09;1460020;80;21234;-72
2022/07/14 00:13:03;;;;;;;11.33;6.80;;;;;;;18.45;62.35;98839.22;1433212;81;22268;-73
2022/07/14 00:15:05;;;;;;;10.55;6.40;;;;;;;18.43;62.36;98844.31;1448656;80;82132;-73
2022/07/14 00:17:06;;;;;;;11.70;6.50;;;;;;;18.41;62.36;98843.62;1448666;80;21067;-72
2022/07/14 00:19:07;;;;;;;8.93;5.87;;;;;;;18.39;62.40;98837.07;1446781;80;81640;-73
2022/07/14 00:21:08;;;;;;;6.70;5.65;;;;;;;18.35;62.36;98841.80;1463208;79;21024;-72
2022/07/14 00:23:09;;;;;;;17.87;6.20;;;;;;;18.32;62.39;98838.06;1466223;79;21067;-73
2022/07/14 00:25:10;;;;;;;8.68;5.90;;;;;;;18.29;62.45;98839.66;1473565;79;81863;-73
2022/07/14 00:27:11;;;;;;;10.55;6.12;;;;;;;18.25;62.46;98836.02;1481329;79;21018;-73
2022/07/14 00:29:12;;;;;;;11.05;6.20;;;;;;;18.21;62.45;98835.44;1472860;79;81930;-73
2022/07/14 00:31:13;;;;;;;14.03;6.37;;;;;;;18.16;62.57;98838.47;1475861;79;21447;-72
2022/07/14 00:33:14;;;;;;;9.60;6.08;;;;;;;18.10;62.54;98832.31;1480257;79;21038;-73
2022/07/14 00:35:16;;;;;;;11.18;5.92;;;;;;;18.07;62.56;98838.38;1475144;79;80663;-73
2022/07/14 00:37:17;;;;;;;13.38;6.22;;;;;;;18.02;62.66;98830.76;1481614;79;20964;-72
2022/07/14 00:39:18;;;;;;;7.33;5.67;;;;;;;17.96;62.84;98836.61;1477521;79;81858;-73
2022/07/14 00:41:19;;;;;;;10.30;5.58;;;;;;;17.90;62.81;98837.05;1476812;79;20980;-72
2022/07/14 00:43:21;;;;;;;15.55;6.25;;;;;;;17.84;62.90;98839.23;1478651;79;21121;-72
2022/07/14 00:45:24;;;;;;;13.20;6.17;;;;;;;17.76;62.92;98828.84;1480946;79;80889;-72
2022/07/14 00:47:25;;;;;;;11.28;5.40;;;;;;;17.70;63.02;98833.68;1476480;79;21142;-72
2022/07/14 00:49:34;;;;;;;9.65;6.03;;;;;;;17.65;63.03;98828.36;1473302;79;81762;-72
2022/07/14 00:51:35;;;;;;;9.98;5.95;;;;;;;17.61;63.16;98830.91;1474252;79;21049;-72
2022/07/14 00:53:36;;;;;;;6.85;5.28;;;;;;;17.54;63.24;98833.20;1473848;79;82098;-72
2022/07/14 00:55:40;;;;;;;12.25;6.62;;;;;;;17.49;63.23;98826.92;1477424;79;21018;-72
2022/07/14 00:57:42;;;;;;;5.97;5.35;;;;;;;17.46;63.30;98831.63;1475579;79;21028;-72
2022/07/14 00:59:43;;;;;;;8.50;5.80;;;;;;;17.42;63.39;98828.38;1474985;79;82112;-72
2022/07/14 01:01:44;;;;;;;12.80;5.50;;;;;;;17.35;63.43;98824.02;1479686;79;20966;-72
2022/07/14 01:03:45;;;;;;;9.23;5.37;;;;;;;17.31;63.49;98817.23;1473103;79;81355;-71
2022/07/14 01:05:47;;;;;;;12.78;5.72;;;;;;;17.28;63.56;98820.61;1475146;79;20994;-72
2022/07/14 01:07:48;;;;;;;9.93;5.78;;;;;;;17.23;63.67;98810.33;1474421;79;21003;-72
2022/07/14 01:09:50;;;;;;;11.18;6.15;;;;;;;17.21;63.68;98815.41;1475833;79;80847;-72
2022/07/14 01:11:51;;;;;;;8.48;5.28;;;;;;;17.18;63.72;98820.02;1477092;79;21018;-72
2022/07/14 01:13:52;;;;;;;12.43;6.00;;;;;;;17.16;63.81;98817.11;1472378;79;81803;-72
2022/07/14 01:15:53;;;;;;;6.00;5.40;;;;;;;17.13;63.89;98818.19;1478930;79;20966;-72
2022/07/14 01:17:55;;;;;;;9.43;5.42;;;;;;;17.09;63.97;98815.41;1477738;79;21070;-72
2022/07/14 01:19:56;;;;;;;13.40;5.60;;;;;;;17.07;64.04;98820.48;1475326;79;80824;-72
2022/07/14 01:21:57;;;;;;;7.15;5.60;;;;;;;17.02;64.05;98816.36;1481790;79;21066;-72
2022/07/14 01:23:58;;;;;;;11.50;5.40;;;;;;;16.98;64.19;98816.73;1477742;79;80618;-72
2022/07/14 01:25:59;;;;;;;;;;;;;;;16.93;64.27;98806.41;1484299;79;20991;-73
2022/07/14 01:28:00;;;;;;;11.93;5.45;;;;;;;16.91;64.49;98803.53;1480771;79;20160;-73
2022/07/14 01:30:01;;;;;;;;;;;;;;;16.87;64.47;98798.05;1474301;79;80795;-72
2022/07/14 01:32:02;;;;;;;7.45;5.28;;;;;;;16.85;64.64;98801.67;1476927;79;20172;-73
2022/07/14 01:34:03;;;;;;;16.25;5.78;;;;;;;16.81;64.60;98797.55;1474272;79;81507;-72
2022/07/14 01:36:05;;;;;;;;;;;;;;;16.78;64.69;98807.11;1480665;79;21001;-72
2022/07/14 01:38:05;;;;;;;;;;;;;;;16.75;64.88;98809.98;1479856;79;20293;-73
2022/07/14 01:40:08;;;;;;;13.75;5.75;;;;;;;16.73;65.05;98804.44;1479139;79;67093;-72
2022/07/14 01:42:09;;;;;;;5.85;5.25;;;;;;;16.70;64.92;98805.52;1476646;79;20994;-73
2022/07/14 01:44:10;;;;;;;;;;;;;;;16.69;64.89;98796.66;1479295;79;80867;-72
2022/07/14 01:46:11;;;;;;;8.43;5.12;;;;;;;16.71;65.10;98802.36;1478850;79;20151;-72
2022/07/14 01:48:11;;;;;;;;;;;;;;;16.70;65.06;98793.53;1479893;79;21069;-72
2022/07/14 01:50:13;;;;;;;12.07;5.95;;;;;;;16.70;65.28;98789.55;1475358;79;67103;-72
2022/07/14 01:52:14;;;;;;;7.70;5.67;;;;;;;16.68;65.13;98791.00;1482310;79;21353;-72
2022/07/14 01:54:15;;;;;;;9.05;5.25;;;;;;;16.69;65.19;98797.16;1479094;79;80844;-72
2022/07/14 01:56:16;;;;;;;;;;;;;;;16.69;65.33;98795.82;1480171;79;21019;-72
2022/07/14 01:58:17;;;;;;;7.53;5.15;;;;;;;16.68;65.56;98800.31;1480949;79;20155;-72
2022/07/14 02:00:17;;;;;;;;;;;;;;;16.66;65.46;98794.24;1478847;79;80718;-72
2022/07/14 02:02:18;;;;;;;6.03;5.03;;;;;;;16.67;65.72;98794.61;1477141;79;20138;-72
2022/07/14 02:04:20;;;;;;;;;;;;;;;16.66;65.71;98792.07;1476344;79;81428;-72
2022/07/14 02:06:21;;;;;;;20.88;7.37;;;;;;;16.66;65.86;98790.74;1478353;79;20157;-72
2022/07/14 02:08:22;;;;;;;7.87;5.92;;;;;;;16.64;65.84;98795.31;1475286;79;21513;-73
2022/07/14 02:12:42;;;;;;;12.93;6.92;;;;;;;16.60;66.19;98793.39;1476011;79;20142;-72
2022/07/14 02:14:43;;;;;;;;;;;;;;;16.59;66.18;98791.69;1478220;79;80981;-72
2022/07/14 02:16:44;;;;;;;17.10;5.92;;;;;;;16.60;66.39;98793.85;1481172;79;20139;-72
2022/07/14 02:18:45;;;;;;;;;;;;;;;16.58;66.37;98797.97;1478162;79;80953;-72
2022/07/14 02:20:47;;;;;;;8.40;5.78;;;;;;;16.60;66.55;98792.52;1478451;79;20487;-72
2022/07/14 02:22:48;;;;;;;10.32;5.87;;;;;;;16.62;66.52;98793.27;1475675;79;21248;-72
2022/07/14 02:24:49;;;;;;;11.05;5.80;;;;;;;16.62;66.50;98788.78;1480537;79;80873;-72
2022/07/14 02:26:50;;;;;;;9.20;5.40;;;;;;;16.65;66.57;98789.04;1478154;79;21077;-72
2022/07/14 02:28:51;;;;;;;8.15;5.62;;;;;;;16.65;66.61;98787.70;1475658;79;81540;-72
2022/07/14 02:30:52;;;;;;;;;;;;;;;16.66;66.60;98782.76;1481247;79;21049;-72
2022/07/14 02:32:53;;;;;;;18.48;6.05;;;;;;;16.67;66.85;98785.30;1479987;79;20160;-72
2022/07/14 02:34:54;;;;;;;11.85;5.47;;;;;;;16.68;66.73;98784.80;1477263;79;81582;-72
2022/07/14 02:36:55;;;;;;;;;;;;;;;16.71;66.69;98793.04;1485183;79;21013;-72
2022/07/14 02:38:57;;;;;;;7.60;5.42;;;;;;;16.72;66.83;98793.41;1474242;79;67290;-72
2022/07/14 02:40:58;;;;;;;14.63;5.83;;;;;;;16.74;66.75;98793.66;1477019;79;21002;-72
2022/07/14 02:42:59;;;;;;;18.48;5.75;;;;;;;16.77;66.78;98792.09;1478231;79;21017;-73
2022/07/14 02:45:00;;;;;;;13.22;5.45;;;;;;;16.79;66.85;98791.48;1472566;79;81458;-72
2022/07/14 02:47:00;;;;;;;;;;;;;;;16.83;66.88;98796.09;1458011;81;21007;-73
2022/07/14 02:49:03;;;;;;;15.43;5.92;;;;;;;16.85;67.22;98796.84;1474174;79;67228;-73
2022/07/14 02:51:07;;;;;;;8.35;5.28;;;;;;;16.85;67.02;98795.02;1478821;79;21040;-73
2022/07/14 02:53:08;;;;;;;19.48;5.70;;;;;;;16.88;67.05;98797.06;1474550;79;21085;-73
2022/07/14 02:55:09;;;;;;;7.80;5.30;;;;;;;16.91;67.12;98794.22;1478661;79;80885;-73
2022/07/14 02:57:11;;;;;;;6.70;5.25;;;;;;;16.92;67.05;98790.56;1476156;79;20998;-73
2022/07/14 02:59:12;;;;;;;13.53;6.28;;;;;;;16.94;67.08;98796.14;1471747;79;81860;-73
2022/07/14 03:01:13;;;;;;;10.32;5.45;;;;;;;16.96;66.98;98792.89;1478993;79;20975;-73
2022/07/14 03:03:15;;;;;;;15.58;5.97;;;;;;;16.98;66.93;98800.75;1478513;79;20995;-73
2022/07/14 03:05:16;;;;;;;13.85;5.42;;;;;;;17.01;66.91;98792.52;1474994;79;81716;-73
2022/07/14 03:07:17;;;;;;;16.15;5.22;;;;;;;17.02;66.92;98787.07;1475311;79;20998;-72
2022/07/14 03:09:18;;;;;;;18.65;5.65;;;;;;;17.04;66.89;98790.94;1474461;79;81809;-72
2022/07/14 03:11:19;;;;;;;;;;;;;;;17.06;66.87;98785.49;1483720;79;21634;-72
2022/07/14 03:13:20;;;;;;;13.93;5.72;;;;;;;17.04;67.15;98780.30;1480693;78;20107;-72
2022/07/14 03:15:21;;;;;;;;;;;;;;;17.04;67.20;98780.78;1476574;79;80980;-72
2022/07/14 03:17:21;;;;;;;19.33;6.13;;;;;;;17.04;67.41;98786.95;1480455;79;20154;-73
2022/07/14 03:19:22;;;;;;;;;;;;;;;17.02;67.34;98783.58;1477134;79;81906;-73
2022/07/14 03:21:23;;;;;;;14.87;5.72;;;;;;;17.02;67.46;98782.23;1475313;79;20502;-73
2022/07/14 03:23:24;;;;;;;12.18;5.40;;;;;;;17.02;67.45;98782.23;1488618;79;21059;-73
2022/07/14 03:25:25;;;;;;;15.43;5.65;;;;;;;17.02;67.48;98784.41;1483885;79;80913;-73
2022/07/14 03:27:26;;;;;;;;;;;;;;;17.05;67.56;98777.16;1486571;79;21068;-73
2022/07/14 03:29:27;;;;;;;11.43;4.90;;;;;;;17.05;67.74;98783.82;1489135;78;68632;-73
2022/07/14 03:31:28;;;;;;;;;;;;;;;17.06;67.71;98789.48;1488708;78;21654;-73
2022/07/14 03:33:30;;;;;;;14.20;5.70;;;;;;;17.08;67.68;98784.91;1489535;79;20144;-73
2022/07/14 03:35:30;;;;;;;12.25;5.75;;;;;;;17.10;67.66;98778.95;1476529;79;81389;-72
2022/07/14 03:37:31;;;;;;;;;;;;;;;17.14;67.61;98785.27;1485357;79;20992;-72
2022/07/14 03:39:32;;;;;;;14.95;5.12;;;;;;;17.17;67.68;98787.69;1483783;78;67132;-72
2022/07/14 03:41:33;;;;;;;;;;;;;;;17.20;67.58;98786.61;1483232;79;21027;-73
2022/07/14 03:43:34;;;;;;;9.33;5.87;;;;;;;17.25;67.67;98783.57;1486882;79;20141;-72
2022/07/14 03:45:35;;;;;;;10.63;5.15;;;;;;;17.27;67.59;98784.31;1483585;79;80491;-73
2022/07/14 03:47:36;;;;;;;18.55;5.60;;;;;;;17.31;67.62;98783.10;1485823;79;21060;-73
2022/07/14 03:49:37;;;;;;;25.90;5.72;;;;;;;17.34;67.59;98785.52;1482507;79;80773;-73
2022/07/14 03:51:43;;;;;;;20.77;5.72;;;;;;;17.39;67.70;98791.80;1486484;79;20988;-73
2022/07/14 03:53:43;;;;;;;20.20;6.05;;;;;;;17.42;67.85;98791.55;1482803;79;90314;-73
2022/07/14 03:55:45;;;;;;;47.90;6.37;;;;;;;17.46;67.92;98789.87;1485474;79;21524;-73
2022/07/14 03:57:46;;;;;;;39.03;5.95;;;;;;;17.48;67.97;98786.58;1487041;79;20984;-73
2022/07/14 03:59:48;;;;;;;40.15;7.47;;;;;;;17.51;68.06;98789.02;1485047;79;82134;-72
2022/07/14 04:01:49;;;;;;;31.57;6.42;;;;;;;17.54;68.14;98789.23;1486474;78;21023;-73
2022/07/14 04:03:50;;;;;;;46.28;6.30;;;;;;;17.58;68.15;98792.52;1487001;79;81134;-73
2022/07/14 04:05:51;;;;;;;41.92;6.33;;;;;;;17.60;68.24;98797.22;1484828;79;21145;-73
2022/07/14 04:07:52;;;;;;;42.13;7.75;;;;;;;17.64;68.25;98800.00;1485603;79;21011;-73
2022/07/14 04:09:54;;;;;;;33.78;6.15;;;;;;;17.66;68.29;98795.41;1481849;78;81852;-72
2022/07/14 04:11:56;;;;;;;31.82;6.65;;;;;;;17.67;68.46;98786.45;1481899;79;21519;-72
2022/07/14 04:13:57;;;;;;;25.15;6.30;;;;;;;17.67;68.41;98784.62;1480504;79;81691;-73
2022/07/14 04:15:58;;;;;;;40.00;6.25;;;;;;;17.69;68.35;98783.16;1477693;79;21032;-72
2022/07/14 04:17:59;;;;;;;19.45;5.00;;;;;;;17.70;68.27;98780.87;1481206;79;21047;-72
2022/07/14 04:20:01;;;;;;;12.15;5.47;;;;;;;17.72;68.08;98776.24;1487152;79;81798;-72
2022/07/14 04:22:02;;;;;;;13.53;5.08;;;;;;;17.72;67.91;98772.24;1482277;79;21012;-72
2022/07/14 04:24:04;;;;;;;18.55;5.85;;;;;;;17.74;67.85;98774.31;1482059;79;82015;-72
2022/07/14 04:26:05;;;;;;;18.27;5.55;;;;;;;17.77;67.80;98774.55;1483588;79;21094;-72
2022/07/14 04:28:07;;;;;;;12.18;5.42;;;;;;;17.79;67.79;98783.27;1485138;79;21598;-72
2022/07/14 04:30:10;;;;;;;11.75;5.92;;;;;;;17.80;67.82;98783.63;1479544;79;81778;-73
2022/07/14 04:32:12;;;;;;;14.70;5.72;;;;;;;17.80;67.74;98775.14;1480472;79;20991;-72
2022/07/14 04:34:13;;;;;;;15.50;5.67;;;;;;;17.81;67.86;98765.34;1480880;79;81644;-72
2022/07/14 04:36:15;;;;;;;9.83;5.42;;;;;;;17.83;67.84;98767.38;1484672;79;21000;-72
2022/07/14 04:38:16;;;;;;;16.37;5.80;;;;;;;17.84;67.82;98775.74;1484179;79;21054;-72
2022/07/14 04:40:17;;;;;;;10.20;4.87;;;;;;;17.84;67.77;98773.08;1482026;79;81715;-72
2022/07/14 04:42:18;;;;;;;32.00;5.90;;;;;;;17.85;67.72;98762.28;1482550;79;21282;-72
2022/07/14 04:44:19;;;;;;;12.90;5.58;;;;;;;17.86;67.68;98777.78;1486658;79;80898;-72
2022/07/14 04:46:20;;;;;;;15.40;5.72;;;;;;;17.87;67.75;98769.69;1488279;79;20956;-72
2022/07/14 04:48:21;;;;;;;13.10;5.67;;;;;;;17.90;67.60;98775.73;1483796;79;21032;-72
2022/07/14 04:52:47;;;;;;;10.23;5.50;;;;;;;17.94;67.37;98774.53;1482854;79;20980;-72
2022/07/14 04:54:48;;;;;;;12.58;6.15;;;;;;;17.98;67.32;98773.31;1484281;78;81576;-72
2022/07/14 04:56:49;;;;;;;14.50;5.65;;;;;;;18.02;67.37;98776.09;1488852;79;21539;-72
2022/07/14 04:58:49;;;;;;;12.47;5.67;;;;;;;18.08;67.34;98768.90;1481930;79;82539;-72
2022/07/14 05:00:50;;;;;;;25.68;6.10;;;;;;;18.16;67.35;98765.61;1483176;79;21004;-72
2022/07/14 05:02:51;;;;;;;16.73;5.70;;;;;;;18.23;67.25;98766.78;1482177;79;20997;-72
2022/07/14 05:04:52;;;;;;;25.80;6.17;;;;;;;18.30;67.25;98771.12;1485304;78;81714;-73
2022/07/14 05:06:55;;;;;;;;;;;;;;;18.37;67.14;98770.96;1481846;79;21059;-73
2022/07/14 05:08:56;;;;;;;42.80;6.22;;;;;;;18.45;67.12;98771.16;1481220;79;67143;-73
2022/07/14 05:10:57;;;;;;;;;;;;;;;18.49;67.06;98769.09;1490216;79;21078;-73
2022/07/14 05:12:58;;;;;;;28.10;6.37;;;;;;;18.54;67.16;98769.06;1485860;79;20172;-73
2022/07/14 05:14:59;;;;;;;17.42;5.60;;;;;;;18.60;67.08;98768.19;1479705;79;80804;-73
2022/07/14 05:17:00;;;;;;;;;;;;;;;18.68;67.06;98758.55;1489269;79;21005;-73
2022/07/14 05:19:01;;;;;;;6.33;4.37;;;;;;;18.79;67.00;98765.64;1482751;79;67098;-73
2022/07/14 05:21:03;;;;;;;9.95;4.70;;;;;;;18.88;66.96;98768.90;1486061;78;21784;-73
2022/07/14 05:23:04;;;;;;;9.88;5.22;;;;;;;18.96;66.75;98768.22;1485470;79;21130;-73
2022/07/14 05:25:07;;;;;;;14.40;5.08;;;;;;;19.04;66.54;98766.23;1487646;79;81407;-73
2022/07/14 05:27:08;;;;;;;9.73;4.40;;;;;;;19.12;66.44;98762.41;1484543;79;21055;-72
2022/07/14 05:29:09;;;;;;;8.75;4.15;;;;;;;19.19;66.24;98772.03;1482229;78;80663;-73
2022/07/14 05:31:10;;;;;;;6.60;4.60;;;;;;;19.25;66.16;98768.02;1485344;79;20968;-73
2022/07/14 05:33:11;;;;;;;10.63;4.22;;;;;;;19.32;66.01;98769.99;1481970;79;21023;-73
2022/07/14 05:35:12;;;;;;;8.88;4.00;;;;;;;19.40;65.92;98767.99;1463110;80;80847;-73
2022/07/14 05:37:13;;;;;;;10.48;3.65;;;;;;;19.48;65.83;98773.98;1490593;79;21019;-73
2022/07/14 05:39:14;;;;;;;5.12;3.87;;;;;;;19.56;65.73;98771.47;1481977;79;81188;-73
2022/07/14 05:41:15;;;;;;;4.25;3.75;;;;;;;19.66;65.65;98774.17;1481496;79;21131;-72
2022/07/14 05:43:16;;;;;;;5.03;3.40;;;;;;;19.77;65.59;98772.73;1483499;79;21019;-73
2022/07/14 05:45:18;;;;;;;18.77;4.05;;;;;;;19.88;65.42;98773.98;1483393;79;80883;-73
2022/07/14 05:47:19;;;;;;;14.30;3.92;;;;;;;19.99;65.33;98773.48;1484656;78;21079;-73
2022/07/14 05:49:19;;;;;;;8.20;3.85;;;;;;;20.08;65.23;98774.00;1480227;79;80835;-73
2022/07/14 05:51:22;;;;;;;7.53;3.55;;;;;;;20.16;65.16;98768.80;1482048;79;21087;-73
2022/07/14 05:53:23;;;;;;;7.50;3.70;;;;;;;20.24;65.03;98771.61;1483378;79;21027;-74
2022/07/14 05:55:24;;;;;;;4.78;3.40;;;;;;;20.35;64.95;98764.41;1485151;78;81775;-74
2022/07/14 05:57:25;;;;;;;9.53;3.50;;;;;;;20.45;64.87;98763.93;1482985;79;21626;-74
2022/07/14 05:59:26;;;;;;;15.13;3.80;;;;;;;20.57;64.80;98765.47;1482308;79;82184;-74
2022/07/14 06:01:27;;;;;;;7.87;3.42;;;;;;;20.67;64.75;98756.55;1479692;79;21661;-74
2022/07/14 06:03:30;;;;;;;7.50;3.12;;;;;;;20.77;64.60;98758.77;1483266;78;20956;-73
2022/07/14 06:05:33;;;;;;;6.75;3.10;;;;;;;20.88;64.42;98763.95;1483426;79;81323;-74
2022/07/14 06:07:34;;;;;;;3.98;3.25;;;;;;;20.99;64.36;98764.75;1484977;79;21020;-74
2022/07/14 06:09:36;;;;;;;4.95;3.00;;;;;;;21.07;64.19;98760.37;1462488;80;80919;-74
2022/07/14 06:11:40;;;;;;;11.00;3.37;;;;;;;21.19;63.99;98765.03;1481087;79;21161;-73
2022/07/14 06:13:41;;;;;;;8.13;3.17;;;;;;;21.29;63.90;98762.30;1479647;79;80978;-73
2022/07/14 06:15:44;;;;;;;6.53;2.70;;;;;;;21.40;63.66;98761.27;1480339;79;20988;-74
2022/07/14 06:17:45;;;;;;;9.98;3.02;;;;;;;21.49;63.42;98767.09;1482419;79;21039;-73
2022/07/14 06:19:46;;;;;;;11.70;3.30;;;;;;;21.58;63.47;98767.55;1483124;78;80752;-73
2022/07/14 06:33:56;;;;;;;18.50;3.12;;;;;;;22.84;62.64;98752.45;1555753;75;23034;-73
2022/07/14 06:35:57;;;;;;;13.90;3.52;;;;;;;22.82;62.46;98747.23;1537173;76;21366;-73
2022/07/14 06:37:58;;;;;;;16.12;4.03;;;;;;;22.90;62.12;98749.98;1534709;76;20947;-73
2022/07/14 06:40:03;;;;;;;18.90;2.72;;;;;;;22.99;61.74;98752.72;1528957;76;82139;-73
2022/07/14 06:42:04;;;;;;;19.42;3.05;;;;;;;23.05;61.71;98754.75;1530338;76;20967;-73
2022/07/14 06:44:05;;;;;;;6.42;2.75;;;;;;;23.09;61.18;98756.12;1531299;76;81552;-73
2022/07/14 06:46:07;;;;;;;15.55;2.55;;;;;;;23.09;60.89;98761.49;1530828;76;21480;-78
2022/07/14 06:48:08;;;;;;;10.38;2.60;;;;;;;23.09;61.14;98758.80;1531321;76;20975;-74
2022/07/14 06:50:09;;;;;;;9.23;2.33;;;;;;;23.13;60.97;98753.48;1502766;76;81652;-73
2022/07/14 06:52:10;;;;;;;10.30;2.37;;;;;;;23.22;60.50;98761.08;1497902;78;21002;-73
2022/07/14 06:54:11;;;;;;;12.63;2.83;;;;;;;23.26;60.62;98759.27;1497330;77;80854;-73
2022/07/14 06:56:12;;;;;;;14.33;2.67;;;;;;;23.35;60.54;98767.38;1494997;78;20966;-73
2022/07/14 06:58:13;;;;;;;6.95;2.62;;;;;;;23.41;60.47;98760.00;1493760;78;21468;-74
2022/07/14 07:00:15;;;;;;;12.73;2.75;;;;;;;23.47;60.21;98770.12;1494085;78;81435;-73
2022/07/14 07:02:16;;;;;;;7.87;2.90;;;;;;;23.50;60.26;98767.62;1492157;78;21496;-73
2022/07/14 07:04:17;;;;;;;6.80;2.20;;;;;;;23.52;60.07;98766.94;1494058;78;81831;-73
2022/07/14 07:08:38;;;;;;;6.83;2.40;;;;;;;23.59;59.84;98770.17;1488461;78;80958;-73
2022/07/14 07:10:43;;;;;;;8.45;2.80;;;;;;;23.64;59.59;98767.81;1447086;80;21024;-74
2022/07/14 07:12:42;;;;;;;12.25;2.35;;;;;;;23.68;59.59;98767.00;1473435;79;21017;-74
2022/07/14 07:14:44;;;;;;;6.90;2.15;;;;;;;23.75;59.38;98771.23;1471962;79;81690;-73
2022/07/14 07:16:47;;;;;;;3.58;2.05;;;;;;;23.82;58.90;98768.73;1446174;80;21026;-74
2022/07/14 07:18:48;;;;;;;6.25;2.17;;;;;;;23.88;58.87;98773.47;1441973;79;81596;-73
2022/07/14 07:20:49;;;;;;;3.08;2.20;;;;;;;23.99;58.91;98766.94;1437996;81;21050;-74
2022/07/14 07:22:50;;;;;;;3.42;1.92;;;;;;;24.14;58.57;98770.66;1444167;81;21149;-72
2022/07/14 07:25:13;;;;;;;12.88;2.15;;;;;;;24.28;58.37;98771.84;1501495;74;22640;-76
2022/07/14 07:27:13;;;;;;;13.08;2.00;;;;;;;24.30;58.20;98768.50;1455191;78;21539;-74
2022/07/14 07:29:14;;;;;;;8.08;2.00;;;;;;;24.36;57.79;98774.55;1482152;78;81624;-75
2022/07/14 07:31:15;;;;;;;12.63;2.05;;;;;;;24.43;58.02;98778.25;1476028;78;21703;-74
2022/07/14 07:33:16;;;;;;;20.17;3.17;;;;;;;24.40;57.47;98773.72;1436992;79;21097;-74
2022/07/14 07:35:18;;;;;;;27.25;2.83;;;;;;;24.36;57.66;98776.41;1414927;81;81058;-74
2022/07/14 07:37:19;;;;;;;5.05;2.05;;;;;;;24.34;57.72;98783.80;1414164;82;21049;-74
2022/07/14 07:39:20;;;;;;;3.42;2.35;;;;;;;24.32;57.47;98782.63;1402450;81;81594;-75
2022/07/14 07:41:21;;;;;;;5.58;1.80;;;;;;;24.29;57.32;98776.23;1338461;87;20986;-76
2022/07/14 07:43:22;;;;;;;8.18;2.27;;;;;;;24.29;57.26;98775.72;1386961;82;21316;-76
2022/07/14 07:45:25;;;;;;;8.33;2.50;;;;;;;24.29;57.24;98766.29;1401301;81;81557;-75
2022/07/14 07:47:26;;;;;;;8.15;2.02;;;;;;;24.33;57.04;98764.12;1406910;83;21526;-75
2022/07/14 07:49:27;;;;;;;5.47;2.35;;;;;;;24.36;56.94;98761.59;1405303;83;81905;-75
2022/07/14 07:51:28;;;;;;;6.75;2.27;;;;;;;24.39;56.65;98766.13;1413130;81;21090;-74
2022/07/14 07:53:29;;;;;;;5.08;2.10;;;;;;;24.41;56.68;98765.95;1413698;82;21079;-75
2022/07/14 07:55:30;;;;;;;8.90;2.35;;;;;;;24.41;56.38;98761.42;1402916;81;81399;-74
2022/07/14 07:57:31;;;;;;;4.35;2.42;;;;;;;24.42;55.87;98762.26;1405580;81;21115;-74
2022/07/14 07:59:32;;;;;;;10.40;2.55;;;;;;;24.44;56.01;98761.60;1403227;83;80676;-75
2022/07/14 08:01:33;;;;;;;4.33;2.15;;;;;;;24.46;56.12;98763.61;1405652;83;21013;-74
2022/07/14 08:03:34;;;;;;;22.90;2.65;;;;;;;24.47;56.21;98766.13;1404570;83;21056;-74
2022/07/14 08:05:35;;;;;;;10.60;2.40;;;;;;;24.47;56.08;98761.25;1402931;83;81359;-75
2022/07/14 08:07:37;;;;;;;7.33;2.08;;;;;;;24.53;55.70;98754.34;1400338;83;21125;-74
2022/07/14 08:09:38;;;;;;;5.42;2.33;;;;;;;24.63;55.25;98762.62;1403509;82;80731;-73
2022/07/14 08:11:41;;;;;;;8.55;2.22;;;;;;;24.70;54.47;98763.28;1404917;82;21022;-75
2022/07/14 08:13:42;;;;;;;8.03;2.33;;;;;;;24.74;54.41;98752.50;1403897;82;81821;-74
2022/07/14 08:15:43;;;;;;;7.12;2.20;;;;;;;24.77;53.98;98751.66;1426712;81;21357;-75
2022/07/14 08:17:44;;;;;;;9.08;2.10;;;;;;;24.83;54.59;98753.34;1427842;81;21568;-75
2022/07/14 08:19:46;;;;;;;14.68;2.70;;;;;;;24.88;54.69;98749.61;1426001;81;80830;-75
2022/07/14 08:21:47;;;;;;;6.53;2.80;;;;;;;24.94;54.59;98756.50;1429178;81;21352;-75
2022/07/14 08:23:48;;;;;;;9.18;2.50;;;;;;;24.99;54.68;98755.49;1423804;80;81641;-74
2022/07/14 08:25:49;;;;;;;10.30;2.72;;;;;;;25.06;54.36;98750.74;1427145;83;21510;-75
2022/07/14 08:27:53;;;;;;;15.58;2.85;;;;;;;25.15;54.53;98753.76;1426670;81;21062;-74
2022/07/14 08:29:55;;;;;;;9.88;2.58;;;;;;;25.20;54.31;98747.34;1424318;82;81420;-75
2022/07/14 08:31:56;;;;;;;5.90;2.60;;;;;;;25.25;53.85;98748.98;1427373;81;22182;-74
2022/07/14 08:33:57;;;;;;;5.83;2.22;;;;;;;25.29;53.75;98747.62;1444066;80;81560;-75
2022/07/14 08:35:58;;;;;;;4.72;2.60;;;;;;;25.39;54.03;98744.75;1461036;79;21621;-75
2022/07/14 08:37:59;;;;;;;23.00;3.50;;;;;;;25.52;53.88;98745.56;1445767;82;21000;-76
2022/07/14 08:40:02;;;;;;;3.75;2.62;;;;;;;25.61;53.41;98748.53;1457568;79;81739;-75
2022/07/14 08:42:03;;;;;;;4.78;2.77;;;;;;;25.70;53.23;98745.78;1446524;79;21031;-75
2022/07/14 08:44:04;;;;;;;9.25;2.30;;;;;;;25.79;53.36;98750.95;1458608;79;81231;-75
2022/07/14 08:46:06;;;;;;;10.08;2.58;;;;;;;25.87;52.79;98738.45;1461560;79;21030;-75
2022/07/14 08:48:11;;;;;;;5.53;2.62;;;;;;;25.95;52.97;98742.45;1461705;79;21015;-75
2022/07/14 08:50:15;;;;;;;14.55;2.40;;;;;;;26.04;52.97;98741.91;1460350;79;80850;-75
2022/07/14 08:52:19;;;;;;;4.83;2.98;;;;;;;26.14;52.69;98747.90;1459991;79;21000;-78
2022/07/14 08:54:22;;;;;;;8.63;2.58;;;;;;;26.14;52.21;98735.25;1462044;79;80767;-76
2022/07/14 08:56:23;;;;;;;13.68;2.92;;;;;;;26.27;51.94;98740.04;1468191;79;21811;-75
2022/07/14 08:58:24;;;;;;;3.45;2.50;;;;;;;26.31;51.83;98744.58;1461108;79;21023;-75
2022/07/14 09:00:25;;;;;;;8.25;2.70;;;;;;;26.39;52.42;98742.31;1460109;79;80638;-75
2022/07/14 09:02:26;;;;;;;14.00;2.67;;;;;;;26.48;52.07;98742.05;1426513;81;21011;-75
2022/07/14 09:04:27;;;;;;;5.80;2.52;;;;;;;26.57;51.99;98740.62;1459091;79;81755;-73
2022/07/14 09:06:44;;;;;;;7.08;2.33;;;;;;;26.64;51.67;98744.27;1461585;79;21091;-75
2022/07/14 09:08:54;;;;;;;4.33;2.90;;;;;;;26.73;51.67;98741.86;1423342;81;80971;-76
2022/07/14 09:10:55;;;;;;;8.88;2.77;;;;;;;26.79;51.48;98738.92;1462247;80;21515;-75
2022/07/14 09:13:10;;;;;;;5.37;2.52;;;;;;;26.82;51.66;98738.55;1461932;79;21024;-74
2022/07/14 09:17:33;;;;;;;15.63;2.90;;;;;;;26.95;51.08;98729.82;1462033;78;21050;-74
2022/07/14 09:19:34;;;;;;;8.08;3.00;;;;;;;26.99;51.36;98723.84;1458179;79;80825;-74
2022/07/14 09:21:37;;;;;;;12.90;3.12;;;;;;;27.09;51.21;98727.61;1445737;79;21059;-75
2022/07/14 09:23:39;;;;;;;25.75;3.00;;;;;;;27.11;50.68;98729.64;1457472;78;82218;-75
2022/07/14 09:25:40;;;;;;;26.87;2.58;;;;;;;27.19;51.30;98730.89;1462952;79;21053;-74
2022/07/14 09:27:43;;;;;;;9.28;2.92;;;;;;;27.35;51.11;98731.22;1462680;80;21032;-74
2022/07/14 09:29:47;;;;;;;20.32;3.25;;;;;;;27.47;50.99;98726.67;1461039;79;81626;-74
2022/07/14 09:31:49;;;;;;;11.22;2.80;;;;;;;27.55;50.94;98726.56;1461393;79;21047;-73
2022/07/14 09:33:52;;;;;;;10.40;2.80;;;;;;;27.63;50.33;98730.52;1459683;79;82193;-75
2022/07/14 09:35:54;;;;;;;9.45;2.77;;;;;;;27.66;50.54;98730.16;1427307;81;21609;-75
2022/07/14 09:37:56;;;;;;;4.53;2.72;;;;;;;27.78;50.24;98732.37;1462663;79;21043;-73
2022/07/14 09:39:59;;;;;;;6.17;2.50;;;;;;;27.80;49.65;98728.94;1449760;79;82338;-74
2022/07/14 09:42:00;;;;;;;17.70;3.37;;;;;;;27.81;50.08;98730.63;1448570;80;21537;-74
2022/07/14 09:44:11;;;;;;;9.93;2.95;;;;;;;27.96;50.23;98736.83;1445883;80;81622;-75
2022/07/14 09:46:12;;;;;;;9.38;2.52;;;;;;;28.06;49.84;98731.64;1447848;80;32825;-74
2022/07/14 09:48:17;;;;;;;12.20;2.30;;;;;;;28.19;49.84;98740.74;1452021;80;80965;-74
2022/07/14 09:50:43;;;;;;;14.80;2.62;;;;;;;28.32;49.42;98735.13;1434363;81;21495;-74
2022/07/14 09:52:44;;;;;;;8.95;2.35;;;;;;;28.48;49.72;98732.14;1432607;81;20956;-74
2022/07/14 09:54:50;;;;;;;5.05;2.67;;;;;;;28.55;49.21;98729.48;1424944;82;81092;-74